createdAt,value
2022-08-20T00:02:13.958Z,99.90
2022-08-20T00:04:42.287Z,99.90
2022-08-20T00:07:10.336Z,99.90
2022-08-20T00:09:39.676Z,99.90
2022-08-20T00:12:08.544Z,99.90
2022-08-20T00:14:37.363Z,99.90
2022-08-20T00:17:07.051Z,99.90
2022-08-20T00:19:35.747Z,99.90
2022-08-20T00:22:03.804Z,99.90
2022-08-20T00:24:31.851Z,99.90
2022-08-20T00:27:01.427Z,99.90
2022-08-20T00:29:29.560Z,99.90
2022-08-20T00:31:57.627Z,99.90
2022-08-20T00:34:25.583Z,99.90
2022-08-20T00:36:53.642Z,99.90
2022-08-20T00:39:21.939Z,99.90
2022-08-20T00:41:51.923Z,99.90
2022-08-20T00:44:23.555Z,99.90
2022-08-20T00:46:52.822Z,99.90
2022-08-20T00:49:25.736Z,99.90
2022-08-20T00:51:57.998Z,99.90
2022-08-20T00:54:31.110Z,99.90
2022-08-20T00:57:02.808Z,99.90
2022-08-20T00:59:35.285Z,99.90
2022-08-20T01:02:05.134Z,99.90
2022-08-20T01:04:35.634Z,99.90
2022-08-20T01:07:06.561Z,99.90
2022-08-20T01:09:57.732Z,99.90
2022-08-20T01:12:25.166Z,99.90
2022-08-20T01:14:54.846Z,99.90
2022-08-20T01:17:25.555Z,99.90
2022-08-20T01:19:58.273Z,99.90
2022-08-20T01:22:50.879Z,99.90
2022-08-20T01:25:26.422Z,99.90
2022-08-20T01:27:57.311Z,99.90
2022-08-20T01:30:28.542Z,99.90
2022-08-20T01:32:57.177Z,99.90
2022-08-20T01:35:26.902Z,99.90
2022-08-20T01:37:55.151Z,99.90
2022-08-20T01:40:49.390Z,99.90
2022-08-20T01:43:19.046Z,99.90
2022-08-20T01:45:49.979Z,99.90
2022-08-20T01:48:19.550Z,99.90
2022-08-20T01:50:55.423Z,99.90
2022-08-20T01:53:33.550Z,99.90
2022-08-20T01:56:02.514Z,99.90
2022-08-20T01:58:33.547Z,99.90
2022-08-20T02:01:01.749Z,99.90
2022-08-20T02:03:33.549Z,99.90
2022-08-20T02:06:05.374Z,99.90
2022-08-20T02:08:33.777Z,99.90
2022-08-20T02:11:02.345Z,99.90
2022-08-20T02:13:32.670Z,99.90
2022-08-20T02:16:00.897Z,99.90
2022-08-20T02:18:29.165Z,99.90
2022-08-20T02:20:57.194Z,99.90
2022-08-20T02:23:25.219Z,99.90
2022-08-20T02:25:53.461Z,99.90
2022-08-20T02:28:21.949Z,99.90
2022-08-20T02:30:55.298Z,99.90
2022-08-20T02:33:25.201Z,99.90
2022-08-20T02:35:56.939Z,99.90
2022-08-20T02:38:25.632Z,99.90
2022-08-20T02:40:53.921Z,99.90
2022-08-20T02:43:22.025Z,99.90
2022-08-20T02:45:51.813Z,99.90
2022-08-20T02:48:23.131Z,99.90
2022-08-20T02:50:53.977Z,99.90
2022-08-20T02:53:22.264Z,99.90
2022-08-20T02:55:50.529Z,99.90
2022-08-20T02:58:19.714Z,99.90
2022-08-20T03:00:48.256Z,99.90
2022-08-20T03:03:22.320Z,99.90
2022-08-20T03:05:52.404Z,99.90
2022-08-20T03:08:21.707Z,99.90
2022-08-20T03:10:50.440Z,99.90
2022-08-20T03:13:19.538Z,99.90
2022-08-20T03:15:49.696Z,99.90
2022-08-20T03:18:20.680Z,99.90
2022-08-20T03:20:52.178Z,99.90
2022-08-20T03:23:22.088Z,99.90
2022-08-20T03:25:50.557Z,99.90
2022-08-20T03:28:19.935Z,99.90
2022-08-20T03:30:48.823Z,99.90
2022-08-20T03:33:20.280Z,99.90
2022-08-20T03:35:48.989Z,99.90
2022-08-20T03:38:20.730Z,99.90
2022-08-20T03:41:02.051Z,99.90
2022-08-20T03:43:30.352Z,99.90
2022-08-20T03:45:58.432Z,99.90
2022-08-20T03:48:27.865Z,99.90
2022-08-20T03:50:56.655Z,99.90
2022-08-20T03:53:24.995Z,99.90
2022-08-20T03:56:00.485Z,99.90
2022-08-20T03:58:36.517Z,99.90
2022-08-20T04:01:07.283Z,99.90
2022-08-20T04:03:38.634Z,99.90
2022-08-20T04:06:07.092Z,99.90
2022-08-20T04:08:35.461Z,99.90
2022-08-20T04:11:03.373Z,99.90
2022-08-20T04:13:31.911Z,99.90
2022-08-20T04:16:03.603Z,99.90
2022-08-20T04:18:32.503Z,99.90
2022-08-20T04:21:01.944Z,99.90
2022-08-20T04:23:31.157Z,99.90
2022-08-20T04:26:00.855Z,99.90
2022-08-20T04:28:30.181Z,99.90
2022-08-20T04:31:00.723Z,99.90
2022-08-20T04:33:33.511Z,99.90
2022-08-20T04:36:06.230Z,99.90
2022-08-20T04:38:48.035Z,99.90
2022-08-20T04:41:22.978Z,99.90
2022-08-20T04:43:54.062Z,99.90
2022-08-20T04:46:23.894Z,99.90
2022-08-20T04:48:51.983Z,99.90
2022-08-20T04:51:23.056Z,99.90
2022-08-20T04:53:53.913Z,99.90
2022-08-20T04:56:24.281Z,99.90
2022-08-20T04:58:53.203Z,99.90
2022-08-20T05:01:21.952Z,99.90
2022-08-20T05:03:50.151Z,99.90
2022-08-20T05:06:18.748Z,99.90
2022-08-20T05:08:48.492Z,99.90
2022-08-20T05:11:33.517Z,99.90
2022-08-20T05:14:05.475Z,99.90
2022-08-20T05:16:37.945Z,99.90
2022-08-20T05:19:06.791Z,99.90
2022-08-20T05:21:35.050Z,99.90
2022-08-20T05:24:05.038Z,99.90
2022-08-20T05:26:34.249Z,99.90
2022-08-20T05:29:04.311Z,99.90
2022-08-20T05:31:33.731Z,99.90
2022-08-20T05:34:02.763Z,99.90
2022-08-20T05:36:30.830Z,99.90
2022-08-20T05:38:59.212Z,99.90
2022-08-20T05:41:30.421Z,99.90
2022-08-20T05:44:01.376Z,99.90
2022-08-20T05:46:32.786Z,99.90
2022-08-20T05:49:01.901Z,99.90
2022-08-20T05:51:30.897Z,99.90
2022-08-20T05:53:59.439Z,99.90
2022-08-20T05:56:31.238Z,99.90
2022-08-20T05:59:02.666Z,99.90
2022-08-20T06:01:31.611Z,99.90
2022-08-20T06:04:28.799Z,99.90
2022-08-20T06:06:59.652Z,99.90
2022-08-20T06:09:31.276Z,99.90
2022-08-20T06:12:02.671Z,99.90
2022-08-20T06:14:31.169Z,99.90
2022-08-20T06:17:05.437Z,99.90
2022-08-20T06:19:33.951Z,99.90
2022-08-20T06:22:02.405Z,99.90
2022-08-20T06:24:45.370Z,99.90
2022-08-20T06:27:16.967Z,99.90
2022-08-20T06:29:44.925Z,99.90
2022-08-20T06:32:13.273Z,99.90
2022-08-20T06:34:50.604Z,99.90
2022-08-20T06:37:20.789Z,99.90
2022-08-20T06:39:48.800Z,99.90
2022-08-20T06:42:20.764Z,99.90
2022-08-20T06:44:49.532Z,99.90
2022-08-20T06:47:18.572Z,99.90
2022-08-20T06:49:47.530Z,99.90
2022-08-20T06:52:17.009Z,99.90
2022-08-20T06:54:45.549Z,99.90
2022-08-20T06:57:13.939Z,99.90
2022-08-20T06:59:43.303Z,99.90
2022-08-20T07:02:11.332Z,99.90
2022-08-20T07:04:39.344Z,99.90
2022-08-20T07:07:07.365Z,99.90
2022-08-20T07:09:35.508Z,99.90
2022-08-20T07:12:03.841Z,99.90
2022-08-20T07:14:31.796Z,99.90
2022-08-20T07:17:03.964Z,99.90
2022-08-20T07:19:38.568Z,99.90
2022-08-20T07:22:08.361Z,99.90
2022-08-20T07:24:40.430Z,99.90
2022-08-20T07:27:09.224Z,99.90
2022-08-20T07:29:51.172Z,99.90
2022-08-20T07:32:37.040Z,99.90
2022-08-20T07:35:11.324Z,99.90
2022-08-20T07:37:41.412Z,99.90
2022-08-20T07:40:13.603Z,99.90
2022-08-20T07:42:41.830Z,99.90
2022-08-20T07:45:12.456Z,99.90
2022-08-20T07:47:43.204Z,99.90
2022-08-20T07:50:13.452Z,99.90
2022-08-20T07:52:41.805Z,99.90
2022-08-20T07:55:12.276Z,99.90
2022-08-20T07:57:41.212Z,99.90
2022-08-20T08:00:10.995Z,99.90
2022-08-20T08:02:40.972Z,99.90
2022-08-20T08:05:10.303Z,99.90
2022-08-20T08:07:39.559Z,99.90
2022-08-20T08:10:14.887Z,99.90
2022-08-20T08:12:47.651Z,99.90
2022-08-20T08:15:19.567Z,99.90
2022-08-20T08:17:50.909Z,99.90
2022-08-20T08:20:19.222Z,99.90
2022-08-20T08:22:47.578Z,99.90
2022-08-20T08:25:17.102Z,99.90
2022-08-20T08:27:47.627Z,99.90
2022-08-20T08:30:17.040Z,99.90
2022-08-20T08:32:59.063Z,99.90
2022-08-20T08:35:28.451Z,99.90
2022-08-20T08:37:56.667Z,99.90
2022-08-20T08:40:24.724Z,99.90
2022-08-20T08:42:58.274Z,99.90
2022-08-20T08:45:31.410Z,99.90
2022-08-20T08:47:59.542Z,99.90
2022-08-20T08:50:53.341Z,99.90
2022-08-20T08:53:25.997Z,99.90
2022-08-20T08:55:54.076Z,99.90
2022-08-20T08:58:22.148Z,99.90
2022-08-20T09:00:55.983Z,99.90
2022-08-20T09:03:29.860Z,99.90
2022-08-20T09:06:01.476Z,99.90
2022-08-20T09:08:44.910Z,99.90
2022-08-20T09:11:12.902Z,99.90
2022-08-20T09:13:43.088Z,99.90
2022-08-20T09:16:11.786Z,99.90
2022-08-20T09:18:40.143Z,99.90
2022-08-20T09:21:10.724Z,99.90
2022-08-20T09:23:39.046Z,99.90
2022-08-20T09:26:07.359Z,99.90
2022-08-20T09:28:37.209Z,99.90
2022-08-20T09:31:06.479Z,99.90
2022-08-20T09:33:36.066Z,99.90
2022-08-20T09:36:04.414Z,99.90
2022-08-20T09:38:53.705Z,99.90
2022-08-20T09:41:21.811Z,99.90
2022-08-20T09:43:49.855Z,99.90
2022-08-20T09:46:17.976Z,99.90
2022-08-20T09:48:45.956Z,99.90
2022-08-20T09:51:14.096Z,99.90
2022-08-20T09:53:42.791Z,99.90
2022-08-20T09:56:13.112Z,99.90
2022-08-20T09:58:49.705Z,99.90
2022-08-20T10:01:19.985Z,99.90
2022-08-20T10:03:49.256Z,99.90
2022-08-20T10:06:19.694Z,99.90
2022-08-20T10:08:48.444Z,99.90
2022-08-20T10:11:18.317Z,99.90
2022-08-20T10:13:46.361Z,99.90
2022-08-20T10:16:14.555Z,99.90
2022-08-20T10:18:42.602Z,99.90
2022-08-20T10:21:11.490Z,99.90
2022-08-20T10:23:39.678Z,99.90
2022-08-20T10:26:09.040Z,99.90
2022-08-20T10:28:38.622Z,99.90
2022-08-20T10:31:07.352Z,99.90
2022-08-20T10:33:36.306Z,99.90
2022-08-20T10:36:08.345Z,99.90
2022-08-20T10:38:36.334Z,99.90
2022-08-20T10:41:04.326Z,99.90
2022-08-20T10:43:32.450Z,99.90
2022-08-20T10:46:01.888Z,99.90
2022-08-20T10:48:29.954Z,99.90
2022-08-20T10:50:57.918Z,99.90
2022-08-20T10:53:25.905Z,99.90
2022-08-20T10:55:54.364Z,99.90
2022-08-20T10:58:23.949Z,99.90
2022-08-20T11:00:52.837Z,99.90
2022-08-20T11:03:22.222Z,99.90
2022-08-20T11:05:50.255Z,99.90
2022-08-20T11:08:33.817Z,99.90
2022-08-20T11:11:02.838Z,99.90
2022-08-20T11:13:30.809Z,99.90
2022-08-20T11:15:58.825Z,99.90
2022-08-20T11:18:28.233Z,99.90
2022-08-20T11:20:57.225Z,99.90
2022-08-20T11:23:25.521Z,99.80
2022-08-20T11:25:53.519Z,99.40
2022-08-20T11:28:31.910Z,99.20
2022-08-20T11:31:01.225Z,99.10
2022-08-20T11:33:30.718Z,99.00
2022-08-20T11:35:58.766Z,98.50
2022-08-20T11:38:26.990Z,98.20
2022-08-20T11:40:55.105Z,97.90
2022-08-20T11:43:23.218Z,97.60
2022-08-20T11:45:53.753Z,97.50
2022-08-20T11:48:22.133Z,97.20
2022-08-20T11:50:51.683Z,97.20
2022-08-20T11:53:22.642Z,96.90
2022-08-20T11:55:50.844Z,96.70
2022-08-20T11:58:19.040Z,96.60
2022-08-20T12:00:47.056Z,96.40
2022-08-20T12:03:15.127Z,96.50
2022-08-20T12:05:45.784Z,96.60
2022-08-20T12:08:27.440Z,96.40
2022-08-20T12:10:57.350Z,96.50
2022-08-20T12:13:30.891Z,96.30
2022-08-20T12:16:13.812Z,96.20
2022-08-20T12:18:41.866Z,96.20
2022-08-20T12:21:10.020Z,96.00
2022-08-20T12:23:39.384Z,95.90
2022-08-20T12:26:07.944Z,96.00
2022-08-20T12:28:36.001Z,96.00
2022-08-20T12:31:04.076Z,96.00
2022-08-20T12:33:32.161Z,96.00
2022-08-20T12:36:00.532Z,96.00
2022-08-20T12:38:28.649Z,95.90
2022-08-20T12:40:58.100Z,96.10
2022-08-20T12:43:26.221Z,96.50
2022-08-20T12:45:54.177Z,96.80
2022-08-20T12:48:22.172Z,97.00
2022-08-20T12:50:52.674Z,97.20
2022-08-20T12:53:20.608Z,97.40
2022-08-20T12:55:48.885Z,97.40
2022-08-20T12:58:19.432Z,97.40
2022-08-20T13:00:51.134Z,97.50
2022-08-20T13:03:20.505Z,97.40
2022-08-20T13:05:49.753Z,97.30
2022-08-20T13:08:19.487Z,97.30
2022-08-20T13:10:47.819Z,97.40
2022-08-20T13:13:20.860Z,97.50
2022-08-20T13:15:49.826Z,97.20
2022-08-20T13:18:17.920Z,97.20
2022-08-20T13:20:46.137Z,97.00
2022-08-20T13:23:14.241Z,96.50
2022-08-20T13:25:42.219Z,96.20
2022-08-20T13:28:10.287Z,96.00
2022-08-20T13:30:40.981Z,95.40
2022-08-20T13:33:09.140Z,95.00
2022-08-20T13:35:37.141Z,94.50
2022-08-20T13:38:05.259Z,94.20
2022-08-20T13:40:33.308Z,93.60
2022-08-20T13:43:05.934Z,93.30
2022-08-20T13:45:35.104Z,93.20
2022-08-20T13:48:06.880Z,93.00
2022-08-20T13:50:38.737Z,92.70
2022-08-20T13:53:07.240Z,92.50
2022-08-20T13:55:35.414Z,92.50
2022-08-20T13:58:07.887Z,92.90
2022-08-20T14:00:37.151Z,93.20
2022-08-20T14:03:07.987Z,93.40
2022-08-20T14:05:36.887Z,93.70
2022-08-20T14:08:09.831Z,94.00
2022-08-20T14:10:39.037Z,94.30
2022-08-20T14:13:08.892Z,94.50
2022-08-20T14:15:39.455Z,94.80
2022-08-20T14:18:09.335Z,95.00
2022-08-20T14:20:38.704Z,95.10
2022-08-20T14:23:07.308Z,95.20
2022-08-20T14:25:35.808Z,95.00
2022-08-20T14:28:12.184Z,94.80
2022-08-20T14:30:40.334Z,94.70
2022-08-20T14:33:09.835Z,94.80
2022-08-20T14:35:38.345Z,94.70
2022-08-20T14:38:06.575Z,94.70
2022-08-20T14:40:35.326Z,94.60
2022-08-20T14:43:03.569Z,94.70
2022-08-20T14:45:32.004Z,94.50
2022-08-20T14:48:00.159Z,94.20
2022-08-20T14:50:31.219Z,93.80
2022-08-20T14:52:59.850Z,93.70
2022-08-20T14:55:30.935Z,93.60
2022-08-20T14:57:59.136Z,93.30
2022-08-20T15:00:30.052Z,93.30
2022-08-20T15:02:58.721Z,93.30
2022-08-20T15:05:27.591Z,93.10
2022-08-20T15:07:59.568Z,92.80
2022-08-20T15:10:32.629Z,92.50
2022-08-20T15:13:01.483Z,92.20
2022-08-20T15:15:29.995Z,92.00
2022-08-20T15:18:01.112Z,91.80
2022-08-20T15:20:31.146Z,91.90
2022-08-20T15:23:01.491Z,92.20
2022-08-20T15:25:36.120Z,92.90
2022-08-20T15:28:06.630Z,93.50
2022-08-20T15:30:35.092Z,94.20
2022-08-20T15:33:03.372Z,94.90
2022-08-20T15:35:31.855Z,95.10
2022-08-20T15:38:01.557Z,95.50
2022-08-20T15:40:32.913Z,95.80
2022-08-20T15:43:04.320Z,96.10
2022-08-20T15:45:33.487Z,96.40
2022-08-20T15:48:11.016Z,96.70
2022-08-20T15:50:51.742Z,96.90
2022-08-20T15:53:28.115Z,97.00
2022-08-20T15:56:03.366Z,97.00
2022-08-20T15:58:39.573Z,97.30
2022-08-20T16:01:24.619Z,97.50
2022-08-20T16:04:25.962Z,97.80
2022-08-20T16:06:58.178Z,97.90
2022-08-20T16:09:49.049Z,98.10
2022-08-20T16:12:24.974Z,98.00
2022-08-20T16:15:00.697Z,98.30
2022-08-20T16:17:34.357Z,98.40
2022-08-20T16:20:08.381Z,98.50
2022-08-20T16:22:40.189Z,98.60
2022-08-20T16:25:10.461Z,98.60
2022-08-20T16:27:46.620Z,98.70
2022-08-20T16:30:21.910Z,98.90
2022-08-20T16:32:56.181Z,99.10
2022-08-20T16:35:30.380Z,99.20
2022-08-20T16:38:08.429Z,99.40
2022-08-20T16:40:49.534Z,99.50
2022-08-20T16:43:22.440Z,99.50
2022-08-20T16:45:54.825Z,99.70
2022-08-20T16:48:23.049Z,99.90
2022-08-20T16:50:59.976Z,99.90
2022-08-20T16:53:28.685Z,99.90
2022-08-20T16:55:58.265Z,99.90
2022-08-20T16:58:26.889Z,99.90
2022-08-20T17:01:08.432Z,99.90
2022-08-20T17:03:39.679Z,99.90
2022-08-20T17:06:20.417Z,99.90
2022-08-20T17:08:51.171Z,99.90
2022-08-20T17:11:27.187Z,99.90
2022-08-20T17:14:10.614Z,99.90
2022-08-20T17:16:42.105Z,99.90
2022-08-20T17:19:20.153Z,99.90
2022-08-20T17:21:50.637Z,99.90
2022-08-20T17:24:25.379Z,99.90
2022-08-20T17:27:00.700Z,99.90
2022-08-20T17:29:31.090Z,99.90
2022-08-20T17:32:01.404Z,99.90
2022-08-20T17:34:32.590Z,99.90
2022-08-20T17:37:04.383Z,99.90
2022-08-20T17:39:32.935Z,99.90
2022-08-20T17:42:10.216Z,99.90
2022-08-20T17:44:42.518Z,99.90
2022-08-20T17:47:14.999Z,99.90
2022-08-20T17:50:00.522Z,99.90
2022-08-20T17:52:35.072Z,99.90
2022-08-20T17:55:06.052Z,99.90
2022-08-20T17:57:41.167Z,99.90
2022-08-20T18:00:14.283Z,99.90
2022-08-20T18:02:42.887Z,99.90
2022-08-20T18:05:16.982Z,99.90
2022-08-20T18:08:02.546Z,99.90
2022-08-20T18:10:34.782Z,99.90
2022-08-20T18:13:11.579Z,99.90
2022-08-20T18:15:47.870Z,99.90
2022-08-20T18:18:26.098Z,99.90
2022-08-20T18:21:17.344Z,99.90
2022-08-20T18:23:50.027Z,99.90
2022-08-20T18:26:24.199Z,99.90
2022-08-20T18:28:59.961Z,99.90
2022-08-20T18:31:32.058Z,99.90
2022-08-20T18:34:11.843Z,99.90
2022-08-20T18:36:41.536Z,99.90
2022-08-20T18:39:12.623Z,99.90
2022-08-20T18:41:44.842Z,99.90
2022-08-20T18:44:16.550Z,99.90
2022-08-20T18:46:54.102Z,99.90
2022-08-20T18:49:30.633Z,99.90
2022-08-20T18:51:59.565Z,99.90
2022-08-20T18:54:30.566Z,99.90
2022-08-20T18:57:08.336Z,99.90
2022-08-20T18:59:43.823Z,99.90
2022-08-20T19:02:20.384Z,99.90
2022-08-20T19:04:59.715Z,99.90
2022-08-20T19:07:45.749Z,99.90
2022-08-20T19:10:38.445Z,99.90
2022-08-20T19:13:46.101Z,99.90
2022-08-20T19:16:20.717Z,99.90
2022-08-20T19:18:52.814Z,99.90
2022-08-20T19:21:27.871Z,99.90
2022-08-20T19:23:58.993Z,99.90
2022-08-20T19:26:31.265Z,99.90
2022-08-20T19:29:03.313Z,99.90
2022-08-20T19:31:34.881Z,99.90
2022-08-20T19:34:20.413Z,99.90
2022-08-20T19:36:56.111Z,99.90
2022-08-20T19:39:26.162Z,99.90
2022-08-20T19:41:58.017Z,99.90
2022-08-20T19:44:33.352Z,99.90
2022-08-20T19:47:03.403Z,99.90
2022-08-20T19:49:43.041Z,99.90
2022-08-20T19:52:23.107Z,99.90
2022-08-20T19:54:54.552Z,99.90
2022-08-20T19:57:25.105Z,99.90
2022-08-20T19:59:56.270Z,99.90
2022-08-20T20:02:27.664Z,99.90
2022-08-20T20:04:58.101Z,99.90
2022-08-20T20:07:29.333Z,99.90
2022-08-20T20:09:59.228Z,99.90
2022-08-20T20:12:27.302Z,99.90
2022-08-20T20:14:56.718Z,99.90
2022-08-20T20:17:30.997Z,99.90
2022-08-20T20:20:02.360Z,99.90
2022-08-20T20:22:32.866Z,99.90
2022-08-20T20:25:06.197Z,99.90
2022-08-20T20:27:36.575Z,99.90
2022-08-20T20:30:08.781Z,99.90
2022-08-20T20:32:41.982Z,99.90
2022-08-20T20:35:09.909Z,99.90
2022-08-20T20:37:47.913Z,99.90
2022-08-20T20:40:25.339Z,99.90
2022-08-20T20:43:02.805Z,99.90
2022-08-20T20:45:34.916Z,99.90
2022-08-20T20:48:15.107Z,99.90
2022-08-20T20:50:43.568Z,99.90
2022-08-20T20:53:12.304Z,99.90
2022-08-20T20:55:41.885Z,99.90
2022-08-20T20:58:09.883Z,99.90
2022-08-20T21:00:38.004Z,99.90
2022-08-20T21:03:07.331Z,99.90
2022-08-20T21:05:35.343Z,99.90
2022-08-20T21:08:07.328Z,99.90
2022-08-20T21:10:37.598Z,99.90
2022-08-20T21:13:07.883Z,99.90
2022-08-20T21:15:37.767Z,99.90
2022-08-20T21:18:09.148Z,99.90
2022-08-20T21:20:37.691Z,99.90
2022-08-20T21:23:06.399Z,99.90
2022-08-20T21:25:36.243Z,99.90
2022-08-20T21:28:05.411Z,99.90
2022-08-20T21:30:33.757Z,99.90
2022-08-20T21:33:01.959Z,99.90
2022-08-20T21:35:31.303Z,99.90
2022-08-20T21:37:59.351Z,99.90
2022-08-20T21:40:28.454Z,99.90
2022-08-20T21:42:57.432Z,99.90
2022-08-20T21:45:28.398Z,99.90
2022-08-20T21:47:57.130Z,99.90
2022-08-20T21:50:26.866Z,99.90
2022-08-20T21:52:59.833Z,99.90
2022-08-20T21:55:29.926Z,99.90
2022-08-20T21:57:58.830Z,99.90
2022-08-20T22:00:52.383Z,99.90
2022-08-20T22:03:22.694Z,99.90
2022-08-20T22:05:51.479Z,99.90
2022-08-20T22:08:28.504Z,99.90
2022-08-20T22:10:58.138Z,99.90
2022-08-20T22:13:28.282Z,99.90
2022-08-20T22:15:56.272Z,99.90
2022-08-20T22:18:24.386Z,99.90
2022-08-20T22:20:52.794Z,99.90
2022-08-20T22:23:22.150Z,99.90
2022-08-20T22:25:50.759Z,99.90
2022-08-20T22:28:19.877Z,99.90
2022-08-20T22:30:48.146Z,99.90
2022-08-20T22:33:20.853Z,99.90
2022-08-20T22:35:51.745Z,99.90
2022-08-20T22:38:21.496Z,99.90
2022-08-20T22:40:49.981Z,99.90
2022-08-20T22:43:18.381Z,99.90
2022-08-20T22:45:48.396Z,99.90
2022-08-20T22:48:18.784Z,99.90
2022-08-20T22:50:46.833Z,99.90
2022-08-20T22:53:16.904Z,99.90
2022-08-20T22:55:46.681Z,99.90
2022-08-20T22:58:16.224Z,99.90
2022-08-20T23:00:45.874Z,99.90
2022-08-20T23:03:15.465Z,99.90
2022-08-20T23:05:47.252Z,99.90
2022-08-20T23:08:15.712Z,99.90
2022-08-20T23:10:44.088Z,99.90
2022-08-20T23:13:13.441Z,99.90
2022-08-20T23:15:45.679Z,99.90
2022-08-20T23:18:16.105Z,99.90
2022-08-20T23:20:47.436Z,99.90
2022-08-20T23:23:15.476Z,99.90
2022-08-20T23:25:43.834Z,99.90
2022-08-20T23:28:13.382Z,99.90
2022-08-20T23:30:42.199Z,99.90
2022-08-20T23:33:10.204Z,99.90
2022-08-20T23:35:40.046Z,99.90
2022-08-20T23:38:09.087Z,99.90
2022-08-20T23:40:37.169Z,99.90
2022-08-20T23:43:06.079Z,99.90
2022-08-20T23:45:35.764Z,99.90
2022-08-20T23:48:08.343Z,99.90
2022-08-20T23:50:37.129Z,99.90
2022-08-20T23:53:06.039Z,99.90
2022-08-20T23:55:34.432Z,99.90
2022-08-20T23:58:02.578Z,99.90
